• Join FlightAware (Why Join?)
  • Login
  • US Flag 
10:20PM EDT


 

Airport Tracker/Info


-or-


 

Live Flight TrackerFlight Track Log ✈ SWA943 ✈ 04-Jan-2014 ✈ KAUS - KMDW

Flight Track Log - Related Links

Times and Time Zones

All times are in EST time to prevent confusion due to time zone crossing. See the SWA943 flight status page for this flight to view local times or setup timezone preferences in your user account.

Time Position Orientation Groundspeed Altitude Reporting Facility
EST Latitude Longitude Course Direction KTS MPH feet Rate Location/Type
09:26AM 30.1600 -97.7178 25° Northeast 209 241 6,500  Level Fort Worth Center
09:27AM 30.2114 -97.7572 326° Northwest 234 269 9,400 2,220 Climbing Fort Worth Center
09:28AM 30.2764 -97.7825 341° North 279 321 11,000 2,340 Climbing Houston Center
09:29AM 30.3686 -97.8186 341° North 329 379 14,100 3,240 Climbing Houston Center
09:30AM 30.4667 -97.8575 341° North 358 412 17,600 2,940 Climbing Houston Center
09:31AM 30.8964 -97.1606 25° Northeast  Level Estimated
09:31AM 30.5728 -97.8722 353° North 388 447 20,200  Level Houston Center
09:32AM 30.6869 -97.8722 360° North 401 461 22,800 2,460 Climbing Houston Center
09:33AM 30.8039 -97.8697 North 409 471 25,300 2,220 Climbing Houston Center
09:34AM 30.9239 -97.8658 North 418 481 27,400 2,040 Climbing Houston Center
09:35AM 31.0667 -97.8156 17° North 449 517 29,500 2,040 Climbing Houston Center
09:36AM 31.1903 -97.7742 16° North 452 520 31,600 2,160 Climbing Houston Center
09:37AM 31.3111 -97.7325 16° North 449 517 34,000 2,160 Climbing Houston Center
09:38AM 31.4267 -97.6933 16° North 435 501 36,100 1,440 Climbing Houston Center
09:39AM 31.5397 -97.6542 16° North 420 483 37,000 420 Climbing Houston Center
09:40AM 31.6561 -97.6136 17° North 427 491 37,000  Level Houston Center
09:42AM 31.7694 -97.5719 17° North 425 489 37,000  Level Fort Worth Center
09:43AM 31.8700 -97.4808 38° Northeast 441 507 37,000  Level Fort Worth Center
09:44AM 31.9833 -97.3778 38° Northeast 443 510 37,000  Level Fort Worth Center
09:45AM 32.0814 -97.2894 37° Northeast 443 510 37,000  Level Fort Worth Center
09:46AM 32.1786 -97.2008 38° Northeast 443 510 37,000  Level Fort Worth Center
09:47AM 32.2767 -97.1139 37° Northeast 443 510 37,000  Level Fort Worth Center
09:48AM 32.3747 -97.0253 37° Northeast 445 512 37,000  Level Fort Worth Center
09:49AM 32.4900 -96.9189 38° Northeast 442 509 37,000  Level Fort Worth Center
09:50AM 32.5881 -96.8303 37° Northeast 444 511 37,000  Level Fort Worth Center
09:51AM 32.6839 -96.7414 38° Northeast 442 509 37,000  Level Fort Worth Center
09:52AM 32.7808 -96.6531 37° Northeast 443 510 37,000  Level Fort Worth Center
09:53AM 32.8783 -96.5631 38° Northeast 445 512 37,000  Level Fort Worth Center
09:54AM 32.9756 -96.4733 38° Northeast 446 513 37,000  Level Fort Worth Center
09:55AM 33.0944 -96.3650 37° Northeast 450 518 37,000  Level Fort Worth Center
09:56AM 33.1931 -96.2725 38° Northeast 452 520 37,000  Level Fort Worth Center
09:57AM 33.2911 -96.1806 38° Northeast 449 517 37,000 600 Level Fort Worth Center
09:58AM 33.3881 -96.0878 39° Northeast 449 517 38,300 960 Climbing Fort Worth Center
09:59AM 33.4872 -95.9969 37° Northeast 448 516 39,000 300 Climbing Fort Worth Center
10:00AM 33.5856 -95.9028 39° Northeast 452 520 39,000  Level Fort Worth Center
10:01AM 33.6867 -95.8089 38° Northeast 459 528 39,000  Level Fort Worth Center
10:02AM 33.8061 -95.6961 38° Northeast 457 526 39,000  Level Fort Worth Center
10:03AM 33.9050 -95.6019 38° Northeast 455 524 39,000  Level Fort Worth Center
10:04AM 33.9958 -95.5164 38° Northeast 452 520 39,000  Level Fort Worth Center
10:05AM 34.0933 -95.4244 38° Northeast 446 513 39,000  Level Fort Worth Center
10:06AM 34.1897 -95.3319 38° Northeast 444 511 39,000  Level Fort Worth Center
10:07AM 34.2861 -95.2383 39° Northeast 443 510 39,000  Level Fort Worth Center
10:08AM 34.4008 -95.1278 38° Northeast 442 509 39,000  Level Fort Worth Center
10:09AM 34.4964 -95.0367 38° Northeast 440 506 39,000  Level Fort Worth Center
10:10AM 34.5931 -94.9422 39° Northeast 443 510 39,000  Level Fort Worth Center
10:11AM 34.6897 -94.8481 39° Northeast 445 512 39,000  Level Fort Worth Center
10:12AM 34.7867 -94.7542 38° Northeast 445 512 39,000  Level Fort Worth Center
10:13AM 34.8961 -94.6681 33° Northeast 445 512 39,000  Level Fort Worth Center
10:14AM 35.0014 -94.5875 32° Northeast 445 512 39,000 -60 Level Fort Worth Center
10:15AM 35.1064 -94.5067 32° Northeast 445 512 38,900  Descending Fort Worth Center
10:16AM 35.1578 -94.4647 34° Northeast 447 514 39,000 60 Climbing Memphis Center
10:17AM 35.2644 -94.3833 32° Northeast 449 517 39,000  Level Memphis Center
10:18AM 35.3919 -94.2844 32° Northeast 450 518 39,000  Level Memphis Center
10:19AM 35.4972 -94.2017 33° Northeast 450 518 39,000  Level Memphis Center
10:20AM 35.6031 -94.1192 32° Northeast 449 517 39,000  Level Memphis Center
10:21AM 35.7172 -94.0292 33° Northeast 447 514 39,000  Level Memphis Center
10:22AM 35.8131 -93.9525 33° Northeast 448 516 39,000  Level Memphis Center
10:23AM 35.9189 -93.8697 32° Northeast 448 516 39,000  Level Memphis Center
10:24AM 36.0239 -93.7872 32° Northeast 447 514 39,000  Level Memphis Center
10:25AM 36.1278 -93.7039 33° Northeast 445 512 39,000  Level Memphis Center
10:26AM 36.2525 -93.6056 32° Northeast 443 510 39,000  Level Memphis Center
10:27AM 36.3575 -93.5214 33° Northeast 445 512 39,000  Level Memphis Center
10:28AM 36.4636 -93.4356 33° Northeast 451 519 39,000  Level Memphis Center
10:29AM 36.5644 -93.3550 33° Northeast 454 522 39,000  Level Memphis Center
10:31AM 36.6967 -93.2522 32° Northeast 452 520 39,000  Level Kansas City Center
10:32AM 36.8028 -93.1642 34° Northeast 456 525 39,000  Level Kansas City Center
10:33AM 36.9292 -93.0614 33° Northeast 459 528 39,000  Level Kansas City Center
10:34AM 37.0378 -92.9719 33° Northeast 463 533 39,000  Level Kansas City Center
10:35AM 37.1469 -92.8819 33° Northeast 465 535 39,000  Level Kansas City Center
10:36AM 37.2556 -92.7911 34° Northeast 467 537 39,000  Level Kansas City Center
10:37AM 37.3631 -92.6997 34° Northeast 466 536 39,000  Level Kansas City Center
10:38AM 37.4739 -92.6067 34° Northeast 473 544 39,000  Level Kansas City Center
10:39AM 37.5842 -92.5158 33° Northeast 473 544 39,000  Level Kansas City Center
10:40AM 37.7081 -92.4142 33° Northeast 473 544 39,000  Level Kansas City Center
10:41AM 37.8158 -92.3231 34° Northeast 469 540 39,000  Level Kansas City Center
10:42AM 37.9242 -92.2294 34° Northeast 472 543 39,000  Level Kansas City Center
10:43AM 38.0361 -92.1347 34° Northeast 478 550 39,000  Level Kansas City Center
10:44AM 38.1475 -92.0436 33° Northeast 476 548 39,000  Level Kansas City Center
10:45AM 38.2578 -91.9506 34° Northeast 474 545 39,000  Level Kansas City Center
10:46AM 38.3692 -91.8544 34° Northeast 478 550 39,000  Level Kansas City Center
10:47AM 38.4814 -91.7586 34° Northeast 481 554 39,000  Level Kansas City Center
10:48AM 38.5936 -91.6631 34° Northeast 483 556 39,000  Level Kansas City Center
10:49AM 38.7250 -91.5508 34° Northeast 481 554 39,000  Level Kansas City Center
10:50AM 38.8358 -91.4503 35° Northeast 484 557 39,000  Level Kansas City Center
10:51AM 38.9483 -91.3542 34° Northeast 485 558 39,000  Level Kansas City Center
10:52AM 39.0603 -91.2564 34° Northeast 485 558 39,000  Level Kansas City Center
10:53AM 39.1717 -91.1581 34° Northeast 484 557 39,000  Level Kansas City Center
10:54AM 39.2836 -91.0597 34° Northeast 484 557 39,000  Level Kansas City Center
10:55AM 39.3947 -90.9617 34° Northeast 483 556 39,000  Level Kansas City Center
10:56AM 39.5061 -90.8614 35° Northeast 484 557 39,000  Level Kansas City Center
10:57AM 39.6167 -90.7633 34° Northeast 483 556 39,000 -600 Level Kansas City Center
10:58AM 39.7267 -90.6639 35° Northeast 483 556 37,800 -2,040 Descending Kansas City Center
10:59AM 39.8575 -90.5456 35° Northeast 479 551 34,800 -2,460 Descending Kansas City Center
11:00AM 39.9656 -90.4483 35° Northeast 476 548 32,800 -1,920 Descending Kansas City Center
11:01AM 40.0714 -90.3528 35° Northeast 469 540 31,000 -900 Descending Kansas City Center
11:02AM 40.1758 -90.2581 35° Northeast 462 532 31,000  Level Kansas City Center
11:03AM 40.2814 -90.1608 35° Northeast 462 532 31,000 -840 Level Kansas City Center
11:04AM 40.3858 -90.0653 35° Northeast 461 531 29,400 -1,680 Descending Kansas City Center
11:05AM 40.4889 -89.9700 35° Northeast 457 526 27,600 -1,860 Descending Kansas City Center
11:06AM 40.5889 -89.8783 35° Northeast 448 516 25,700 -2,100 Descending Kansas City Center
11:07AM 40.7014 -89.7594 39° Northeast 438 504 23,400 -1,800 Descending Kansas City Center
11:08AM 40.7608 -89.6108 62° Northeast 449 517 22,000 -1,140 Descending Kansas City Center
11:10AM 40.8503 -89.4686 50° Northeast 451 519 20,900 -960 Descending Chicago Center
11:11AM 40.9289 -89.3417 51° Northeast 446 513 19,900 -1,560 Descending Chicago Center
11:12AM 41.0186 -89.1942 51° Northeast 437 503 17,800 -1,860 Descending Chicago Center
11:13AM 41.0928 -89.0742 51° Northeast 425 489 16,200 -1,980 Descending Chicago Center
11:14AM 41.1611 -88.9583 52° Northeast 405 466 13,800 -2,400 Descending Chicago Center
11:15AM 41.2292 -88.8472 51° Northeast 390 449 11,400 -1,860 Descending Chicago Center
11:16AM 41.2933 -88.7433 51° Northeast 370 426 10,100 -720 Descending Chicago Center
11:17AM 41.3536 -88.6408 52° Northeast 356 410 10,000 -60 Descending Chicago Center
11:18AM 41.3994 -88.5294 61° Northeast 348 400 10,000  Level Chicago Center
11:19AM 41.4331 -88.4094 69° East 345 397 10,000 -60 Level Chicago Center
11:20AM 41.4667 -88.2869 70° East 349 402 9,900 -960 Descending Chicago Center
11:21AM 41.5036 -88.1525 70° East 321 369 8,100 -1,560 Descending Chicago Center
11:22AM 41.5353 -88.0381 70° East 320 368 6,800 -1,260 Descending Chicago Center
11:23AM 41.5656 -87.9286 70° East 316 364 5,600 -960 Descending Chicago Center
11:24AM 41.5933 -87.8261 70° East 305 351 4,900 -780 Descending Chicago Center
11:25AM 41.6306 -87.7367 61° Northeast 286 329 4,100 -900 Descending Chicago Center
11:26AM 41.6736 -87.6614 53° Northeast 267 307 3,100 -840 Descending Chicago Center
11:27AM 41.7175 -87.5964 48° Northeast 246 283 2,500 -480 Descending Chicago Center
11:28AM 41.7597 -87.6233 335° Northwest 198 228 2,200 -300 Descending Chicago Center
11:29AM 41.7950 -87.6611 321° Northwest 177 204 1,900 -420 Descending Chicago Center
11:30AM 41.8206 -87.6969 314° West 158 182 1,400 -420 Descending Chicago Center
11:31AM 41.7992 -87.7394 236° Southwest 143 165 1,100 -300 Descending Chicago Center